Aeroporto :
LOGIN :

Iscrizione | Disclaimer

   EN    FR    IT 

 










Sommario :    VFR   VFR Marginale   IFR   IFR Intensivo   IFR Molto Intensivo
Visibilità : 
Base nubi : 
>= 8 km
>= 3000ft
5 / 8 km
1000 / 3000 ft
1500m / 5 km
500 / 1000 ft
800 / 1500m
200 / 500 ft
< 800m
< 200 ft
Simboli :   Temporali  Nebbia  Neve Forte  Precipitazioni Forti  Vento > 20 kt
SIGMETs :   Varie  Temporali  Ghiacco  Turbolenza  Onda orograficha  Ceneri Vulcaniche






- Altitudine del aeroporto : 1046 ft
- Codice IATA : NUE


EDDN - Nuremberg

ULTIMO METAR :
  • 110520Z 12008KT CAVOK M02/M04 Q1017 NOSIG

METARs OBSOLETI :
  • 110450Z 12008KT CAVOK M01/M04 Q1017
  • 110420Z 13007KT CAVOK M01/M03 Q1017
  • 110350Z 12009KT CAVOK M01/M03 Q1018
  • 110320Z 12006KT CAVOK M02/M03 Q1018
  • 110250Z 12006KT CAVOK M01/M03 Q1019

TAF TAF EDDN
Valido dal 11 a 00 ore il 12 a 00 ore UTC


102300Z 1100/1124 13007KT CAVOK
TEMPO 1114/1118 4000 -SNRA BKN014
TEMPO 1118/1124 2000 SNRA BKN009



MetMap, La meteo Aeronautica in un colpo d'occhio ! - Copyright ORBIFLY Dicembre 2007 - Disclaimer

ORBIFLY MET'MAP TEAM :

Programmazione e sviluppo : Alexandra Zaïnal
Concezione : Baudouin d'Aumeries
Aiuto per la programmazione : Marc-Olivier Méhu
Supporto tecnico e logistico : Manuel Goepfert
Aiuto per la traduzione : Arnaldo La Scala

Contatto : metmap@orbifly.com




FONTI E CREDITI :

   NOAA